Time;durP1;ratioP1;P1;durP2;ratioP2;P2;SDS_P1;SDS_P2;PMS_P1;PMS_P2;Temp;Humidity;BMP_temperature;BMP_pressure;BME280_temperature;BME280_humidity;BME280_pressure;Samples;Min_cycle;Max_cycle;Signal;HPM_P1;HPM_P2
2023/07/27 00:00:31;;;;;;;8.63;3.65;;;17.70;99.90;;;17.10;100.00;100923.41;3986427;29;20414;-75
2023/07/27 00:02:33;;;;;;;7.38;3.97;;;17.70;99.90;;;17.10;100.00;100923.41;3980786;29;20023;-75
2023/07/27 00:04:34;;;;;;;6.90;3.65;;;17.70;99.90;;;17.11;100.00;100923.22;3980473;29;20023;-75
2023/07/27 00:06:35;;;;;;;6.70;3.10;;;17.70;99.90;;;17.14;100.00;100922.03;3996038;29;20018;-75
2023/07/27 00:08:36;;;;;;;7.28;4.63;;;17.70;99.90;;;17.14;100.00;100928.16;3971035;29;20031;-75
2023/07/27 00:10:37;;;;;;;6.60;3.95;;;17.70;99.90;;;17.13;100.00;100928.38;3996760;29;20125;-75
2023/07/27 00:12:37;;;;;;;7.13;3.83;;;17.60;99.90;;;17.13;100.00;100917.72;3996667;29;20061;-75
2023/07/27 00:14:38;;;;;;;8.93;4.10;;;17.70;99.90;;;17.19;100.00;100924.09;3974582;29;20478;-75
2023/07/27 00:16:39;;;;;;;8.93;4.20;;;17.60;99.90;;;17.12;100.00;100926.72;3995888;29;20034;-75
2023/07/27 00:18:40;;;;;;;7.32;4.25;;;17.70;99.90;;;17.11;100.00;100914.41;3980185;29;20175;-75
2023/07/27 00:20:41;;;;;;;10.52;3.85;;;17.70;99.90;;;17.11;100.00;100909.09;3980572;29;20042;-75
2023/07/27 00:22:42;;;;;;;9.45;3.92;;;17.70;99.90;;;17.13;100.00;100918.53;3988575;29;20050;-75
2023/07/27 00:24:42;;;;;;;6.68;3.35;;;17.70;99.90;;;17.16;100.00;100914.66;3996659;29;20030;-75
2023/07/27 00:26:43;;;;;;;7.05;3.30;;;17.70;99.90;;;17.15;100.00;100911.16;3996507;29;20022;-75
2023/07/27 00:28:44;;;;;;;9.63;3.55;;;17.70;99.90;;;17.13;100.00;100904.38;3996583;29;20037;-75
2023/07/27 00:30:50;;;;;;;5.53;3.33;;;17.70;99.90;;;17.14;100.00;100903.38;3996436;29;20031;-75
2023/07/27 00:32:51;;;;;;;6.03;2.70;;;17.70;99.90;;;17.14;100.00;100904.16;3972723;29;20030;-75
2023/07/27 00:34:52;;;;;;;5.60;2.80;;;17.70;99.90;;;17.15;100.00;100897.00;3976102;29;20037;-75
2023/07/27 00:36:53;;;;;;;5.80;2.95;;;17.70;99.90;;;17.16;100.00;100896.00;3979992;29;20027;-75
2023/07/27 00:38:54;;;;;;;5.32;3.00;;;17.70;99.90;;;17.16;100.00;100896.00;3996148;29;20038;-75
2023/07/27 00:40:55;;;;;;;3.72;2.75;;;17.70;99.90;;;17.18;100.00;100899.28;3980281;29;20030;-75
2023/07/27 00:42:56;;;;;;;5.10;2.38;;;17.70;99.90;;;17.14;100.00;100900.72;3996299;29;20559;-75
2023/07/27 00:44:56;;;;;;;4.63;2.60;;;17.70;99.90;;;17.17;100.00;100904.81;3996522;29;20026;-75
2023/07/27 00:46:58;;;;;;;6.20;2.80;;;17.70;99.90;;;17.20;100.00;100897.25;3979921;29;20030;-75
2023/07/27 00:48:59;;;;;;;6.82;3.50;;;17.70;99.90;;;17.19;100.00;100900.94;3979667;29;20031;-75
2023/07/27 00:51:00;;;;;;;6.30;3.08;;;17.70;99.90;;;17.21;100.00;100900.72;3980028;29;20034;-75
2023/07/27 00:53:04;;;;;;;4.35;2.58;;;17.70;99.90;;;17.25;100.00;100896.66;3996238;29;20492;-75
2023/07/27 00:55:05;;;;;;;3.45;2.20;;;17.70;99.90;;;17.23;100.00;100896.88;3979996;29;20038;-75
2023/07/27 00:57:07;;;;;;;3.83;2.47;;;17.70;99.90;;;17.22;100.00;100889.06;3996011;29;20114;-75
2023/07/27 00:59:08;;;;;;;10.70;3.55;;;17.80;99.90;;;17.23;100.00;100885.38;3979905;29;20023;-75
2023/07/27 01:01:10;;;;;;;5.55;2.83;;;17.70;99.90;;;17.23;100.00;100888.03;3996226;29;20398;-75
2023/07/27 01:03:11;;;;;;;6.22;3.25;;;17.80;99.90;;;17.24;100.00;100881.66;3964582;30;20107;-75
2023/07/27 01:05:12;;;;;;;4.22;2.28;;;17.80;99.90;;;17.21;100.00;100868.72;3972177;29;20046;-75
2023/07/27 01:07:13;;;;;;;5.07;2.58;;;17.80;99.90;;;17.26;100.00;100875.16;3979904;29;20083;-75
2023/07/27 01:09:14;;;;;;;6.18;2.40;;;17.80;99.90;;;17.27;100.00;100870.63;3979760;29;20046;-75
2023/07/27 01:11:50;;;;;;;5.22;2.25;;;17.80;99.90;;;17.25;100.00;100870.81;3979699;29;20087;-75
2023/07/27 01:14:00;;;;;;;4.00;2.22;;;17.80;99.90;;;17.24;100.00;100877.16;3967032;29;20043;-75
2023/07/27 01:16:12;;;;;;;6.22;2.85;;;17.80;99.90;;;17.22;100.00;100868.56;3974906;29;20504;-75
2023/07/27 01:18:31;;;;;;;6.32;2.58;;;17.80;99.90;;;17.23;100.00;100864.06;3971144;29;20043;-75
2023/07/27 01:20:47;;;;;;;4.28;2.83;;;17.80;99.90;;;17.25;100.00;100862.00;3980848;29;20403;-75
2023/07/27 01:23:52;;;;;;;7.75;2.83;;;17.80;99.90;;;17.24;100.00;100863.84;3979937;29;20051;-75
2023/07/27 01:26:37;;;;;;;6.65;2.70;;;17.80;99.90;;;17.24;100.00;100866.50;3977690;29;20042;-75
2023/07/27 01:28:58;;;;;;;9.88;2.83;;;17.80;99.90;;;17.23;100.00;100870.22;3980240;29;20492;-75
2023/07/27 01:31:19;;;;;;;4.53;2.90;;;17.80;99.90;;;17.21;100.00;100866.06;3991475;29;20038;-75
2023/07/27 01:33:32;;;;;;;4.22;2.35;;;17.80;99.90;;;17.10;100.00;100860.28;3992844;29;20413;-75
2023/07/27 01:35:42;;;;;;;5.18;2.70;;;17.70;99.90;;;17.04;100.00;100861.06;3962586;29;20043;-75
2023/07/27 01:37:47;;;;;;;6.38;2.72;;;17.60;99.90;;;17.01;100.00;100856.13;3979990;29;20037;-75
2023/07/27 01:39:52;;;;;;;5.07;2.50;;;17.60;99.90;;;16.97;100.00;100848.69;3979687;29;20070;-75
2023/07/27 01:41:55;;;;;;;5.45;2.75;;;17.60;99.90;;;17.03;100.00;100863.91;3979591;29;20084;-75
2023/07/27 01:43:57;;;;;;;5.03;2.60;;;17.50;99.90;;;16.97;100.00;100849.53;3979263;29;20034;-75
2023/07/27 01:45:59;;;;;;;6.18;3.08;;;17.50;99.90;;;17.01;100.00;100849.97;3977790;29;20027;-75
2023/07/27 01:48:01;;;;;;;5.72;2.60;;;17.60;99.90;;;17.01;100.00;100848.13;3988959;29;20511;-75
2023/07/27 01:50:03;;;;;;;4.97;2.63;;;17.60;99.90;;;17.06;100.00;100847.53;3979333;29;20507;-75
2023/07/27 01:52:05;;;;;;;6.30;2.20;;;17.60;99.90;;;17.08;100.00;100843.63;3979211;29;20035;-75
2023/07/27 01:54:08;;;;;;;5.25;2.20;;;17.60;99.90;;;17.10;100.00;100844.28;3978345;29;20058;-75
2023/07/27 01:56:11;;;;;;;4.45;2.22;;;17.60;99.90;;;17.10;100.00;100838.97;3962320;29;20538;-75
2023/07/27 01:58:15;;;;;;;3.70;1.90;;;17.70;99.90;;;17.17;100.00;100848.84;3990092;29;20039;-75
2023/07/27 02:00:17;;;;;;;3.42;1.65;;;17.70;99.90;;;17.09;100.00;100831.13;3971693;29;20106;-74
2023/07/27 02:02:18;;;;;;;5.00;2.33;;;17.70;99.90;;;17.12;100.00;100833.41;3979318;29;20109;-75
2023/07/27 02:04:18;;;;;;;4.25;2.22;;;17.70;99.90;;;17.13;100.00;100840.41;3978843;29;20034;-75
2023/07/27 02:06:19;;;;;;;6.03;2.10;;;17.60;99.90;;;17.13;100.00;100837.75;3995415;29;20022;-75
2023/07/27 02:08:20;;;;;;;5.97;2.47;;;17.70;99.90;;;17.14;100.00;100842.84;3977541;29;20042;-75
2023/07/27 02:10:23;;;;;;;4.45;1.83;;;17.70;99.90;;;17.07;100.00;100833.19;3990172;29;20034;-75
2023/07/27 02:12:32;;;;;;;4.05;1.80;;;17.60;99.90;;;17.00;100.00;100848.31;3978637;29;20034;-74
2023/07/27 02:15:01;;;;;;;5.03;2.10;;;17.60;99.90;;;16.86;100.00;100834.09;3971770;29;20061;-74
2023/07/27 02:17:11;;;;;;;4.18;1.98;;;17.50;99.90;;;16.77;100.00;100831.75;3985162;29;20038;-74
2023/07/27 02:19:16;;;;;;;2.70;1.77;;;17.40;99.90;;;16.67;100.00;100824.09;3970764;29;20035;-75
2023/07/27 02:21:18;;;;;;;4.10;2.45;;;17.30;99.90;;;16.54;100.00;100818.69;3979242;29;20034;-75
2023/07/27 02:23:20;;;;;;;2.85;1.75;;;17.20;99.90;;;16.52;100.00;100816.16;3978906;29;20055;-75
2023/07/27 02:25:21;;;;;;;3.13;1.67;;;17.10;99.90;;;16.47;100.00;100818.59;3979268;29;20083;-75
2023/07/27 02:27:22;;;;;;;6.00;2.28;;;17.00;99.90;;;16.46;100.00;100819.59;3981060;29;20031;-75
2023/07/27 02:29:23;;;;;;;4.38;1.80;;;17.00;99.90;;;16.45;100.00;100812.63;3983948;29;20034;-75
2023/07/27 02:31:24;;;;;;;3.65;1.98;;;17.00;99.90;;;16.51;100.00;100819.03;3998108;29;20510;-75
2023/07/27 02:33:25;;;;;;;2.90;1.80;;;17.10;99.90;;;16.54;100.00;100814.19;3997721;29;20030;-75
2023/07/27 02:35:26;;;;;;;3.15;1.67;;;17.10;99.90;;;16.62;100.00;100812.38;3981900;29;20446;-75
2023/07/27 02:37:27;;;;;;;6.18;1.80;;;17.10;99.90;;;16.57;100.00;100799.66;3974238;29;20097;-75
2023/07/27 02:39:28;;;;;;;2.53;1.55;;;17.20;99.90;;;16.62;100.00;100804.38;3994659;29;20035;-75
2023/07/27 02:41:28;;;;;;;4.07;1.70;;;17.10;99.90;;;16.67;100.00;100807.28;3998126;29;20041;-74
2023/07/27 02:43:29;;;;;;;4.32;1.70;;;17.20;99.90;;;16.67;100.00;100799.28;3997901;29;20038;-74
2023/07/27 02:45:33;;;;;;;2.47;1.50;;;17.20;99.90;;;16.69;100.00;100802.59;3981867;29;20035;-74
2023/07/27 02:47:34;;;;;;;3.42;1.60;;;17.30;99.90;;;16.70;100.00;100790.91;3981601;29;20030;-75
2023/07/27 02:49:35;;;;;;;3.33;1.70;;;17.30;99.90;;;16.75;100.00;100793.84;3996608;29;20076;-75
2023/07/27 02:51:35;;;;;;;4.15;2.00;;;17.30;99.90;;;16.74;100.00;100785.00;3985653;29;20038;-75
2023/07/27 02:53:36;;;;;;;3.15;1.55;;;17.30;99.90;;;16.78;100.00;100790.78;3981528;29;20035;-75
2023/07/27 02:55:37;;;;;;;5.38;1.67;;;17.30;99.90;;;16.77;100.00;100789.13;3989913;29;20109;-74
2023/07/27 02:57:38;;;;;;;3.85;1.65;;;17.30;99.90;;;16.79;100.00;100781.75;3981670;29;20045;-75
2023/07/27 02:59:39;;;;;;;3.90;1.77;;;17.30;99.90;;;16.82;100.00;100786.69;3981410;29;20465;-75
2023/07/27 03:01:40;;;;;;;3.00;1.52;;;17.40;99.90;;;16.83;100.00;100783.00;3997577;29;20030;-75
2023/07/27 03:03:40;;;;;;;4.78;1.50;;;17.30;99.90;;;16.77;100.00;100783.81;3988836;29;20023;-75
2023/07/27 03:05:41;;;;;;;2.97;1.67;;;17.30;99.90;;;16.71;100.00;100780.06;3981456;29;20037;-74
2023/07/27 03:07:42;;;;;;;3.88;1.60;;;17.30;99.90;;;16.74;100.00;100779.69;3981372;29;20038;-75
2023/07/27 03:09:43;;;;;;;2.58;1.73;;;17.30;99.90;;;16.71;100.00;100768.59;3997431;29;20042;-75
2023/07/27 03:11:44;;;;;;;3.30;2.15;;;17.30;99.90;;;16.73;100.00;100772.69;3997491;29;20507;-75
2023/07/27 03:13:45;;;;;;;3.97;1.55;;;17.30;99.90;;;16.72;100.00;100775.56;3997425;29;20045;-75
2023/07/27 03:15:46;;;;;;;3.80;1.50;;;17.30;99.90;;;16.71;100.00;100776.59;3994094;29;20026;-75
2023/07/27 03:17:46;;;;;;;2.63;1.70;;;17.30;99.90;;;16.73;100.00;100775.38;3982696;29;20062;-75
2023/07/27 03:19:47;;;;;;;4.35;2.30;;;17.30;99.90;;;16.77;100.00;100778.47;3997316;29;20103;-75
2023/07/27 03:21:48;;;;;;;2.67;1.40;;;17.30;99.90;;;16.78;100.00;100766.81;3997429;29;20079;-75
2023/07/27 03:23:49;;;;;;;2.63;1.75;;;17.30;99.90;;;16.79;100.00;100758.59;3981196;29;20050;-75
2023/07/27 03:25:50;;;;;;;5.55;1.63;;;17.40;99.90;;;16.84;100.00;100771.34;3981266;29;20039;-75
2023/07/27 03:27:51;;;;;;;3.00;1.52;;;17.40;99.90;;;16.84;100.00;100768.69;3997235;29;20088;-75
2023/07/27 03:29:52;;;;;;;2.13;1.48;;;17.40;99.90;;;16.88;100.00;100775.25;3981171;29;20039;-75
2023/07/27 03:31:53;;;;;;;3.83;1.92;;;17.40;99.90;;;16.88;100.00;100768.09;3974899;29;20038;-75
2023/07/27 03:33:54;;;;;;;5.93;1.95;;;17.50;99.90;;;16.86;100.00;100774.63;3980882;29;20038;-75
2023/07/27 03:35:55;;;;;;;3.58;1.92;;;17.40;99.90;;;16.90;100.00;100775.91;3980966;29;20080;-74
2023/07/27 03:37:55;;;;;;;3.92;2.08;;;17.40;99.90;;;16.85;100.00;100775.66;3997252;29;20031;-75
2023/07/27 03:39:56;;;;;;;5.60;2.15;;;17.40;99.90;;;16.78;100.00;100769.47;3997010;29;20027;-75
2023/07/27 03:41:57;;;;;;;2.70;1.90;;;17.30;99.90;;;16.77;100.00;100773.13;3964885;29;20042;-75
2023/07/27 03:43:58;;;;;;;5.30;2.33;;;17.30;99.90;;;16.74;100.00;100765.53;3996896;29;20418;-75
2023/07/27 03:45:59;;;;;;;3.85;2.17;;;17.30;99.90;;;16.72;100.00;100756.94;3993838;29;20031;-75
2023/07/27 03:47:59;;;;;;;4.13;2.20;;;17.30;99.90;;;16.70;100.00;100751.78;3996885;29;20076;-75
2023/07/27 03:50:00;;;;;;;7.03;2.50;;;17.20;99.90;;;16.72;100.00;100764.94;3973710;29;20408;-75
2023/07/27 03:52:01;;;;;;;3.78;2.08;;;17.20;99.90;;;16.72;100.00;100762.25;3994612;29;20038;-75
2023/07/27 03:54:02;;;;;;;3.17;1.95;;;17.20;99.90;;;16.71;100.00;100758.78;3996844;29;20096;-75
2023/07/27 03:56:04;;;;;;;3.20;2.25;;;17.20;99.90;;;16.70;100.00;100753.63;3996873;29;20043;-75
2023/07/27 03:58:05;;;;;;;2.92;1.80;;;17.30;99.90;;;16.72;100.00;100754.28;3980816;29;20113;-75
2023/07/27 04:00:07;;;;;;;3.13;2.05;;;17.30;99.90;;;16.66;100.00;100739.91;3980587;29;20030;-74
2023/07/27 04:02:08;;;;;;;3.13;2.10;;;17.30;99.90;;;16.71;100.00;100748.13;3996607;29;20030;-74
2023/07/27 04:04:09;;;;;;;4.22;2.28;;;17.30;99.90;;;16.71;100.00;100752.63;3980560;29;20507;-75
2023/07/27 04:06:10;;;;;;;5.68;2.38;;;17.30;99.90;;;16.71;100.00;100750.78;3971424;29;20035;-74
2023/07/27 04:08:11;;;;;;;3.50;2.10;;;17.30;99.90;;;16.71;100.00;100758.78;3978130;29;20023;-74
2023/07/27 04:10:11;;;;;;;4.32;2.03;;;17.30;99.90;;;16.70;100.00;100758.94;3978527;29;20141;-74
2023/07/27 04:12:12;;;;;;;5.78;2.05;;;17.20;99.90;;;16.68;100.00;100750.34;3979671;29;20083;-75
2023/07/27 04:14:13;;;;;;;4.72;2.20;;;17.20;99.90;;;16.67;100.00;100746.84;3980646;29;20030;-75
2023/07/27 04:16:14;;;;;;;5.13;2.00;;;17.20;99.90;;;16.67;100.00;100756.66;3995381;29;20026;-74
2023/07/27 04:18:15;;;;;;;3.72;2.30;;;17.20;99.90;;;16.46;100.00;100729.06;3989863;29;20502;-74
2023/07/27 04:20:16;;;;;;;3.95;2.08;;;17.20;99.90;;;16.56;100.00;100742.91;3996517;29;20080;-74
2023/07/27 04:22:17;;;;;;;3.67;1.90;;;17.10;99.90;;;16.51;100.00;100753.28;3980285;29;20038;-74
2023/07/27 04:24:18;;;;;;;6.63;2.78;;;17.10;99.90;;;16.54;100.00;100746.78;3971793;29;20027;-74
2023/07/27 04:26:18;;;;;;;3.63;2.08;;;17.10;99.90;;;16.53;100.00;100745.91;3980067;29;20091;-74
2023/07/27 04:28:19;;;;;;;3.80;2.38;;;17.10;99.90;;;16.50;100.00;100735.66;3996546;29;20023;-75
2023/07/27 04:30:20;;;;;;;5.47;2.30;;;17.10;99.90;;;16.49;100.00;100743.81;3980276;29;20035;-74
2023/07/27 04:32:21;;;;;;;3.75;2.25;;;17.10;99.90;;;16.51;100.00;100747.13;3980078;29;20066;-74
2023/07/27 04:34:22;;;;;;;5.13;2.20;;;17.10;99.90;;;16.54;100.00;100752.94;3984996;29;20042;-74
2023/07/27 04:36:23;;;;;;;4.03;2.10;;;17.10;99.90;;;16.53;100.00;100751.25;3996330;29;20384;-74
2023/07/27 04:38:24;;;;;;;3.92;2.15;;;17.10;99.90;;;16.55;100.00;100754.56;3980004;29;20031;-74
2023/07/27 04:40:25;;;;;;;3.33;1.70;;;17.10;99.90;;;16.55;100.00;100748.41;3993738;29;20038;-75
2023/07/27 04:42:25;;;;;;;3.67;2.00;;;17.10;99.90;;;16.59;100.00;100750.50;3979892;29;20034;-74
2023/07/27 04:44:26;;;;;;;3.55;2.38;;;17.10;99.90;;;16.61;100.00;100752.94;3975086;29;20534;-75
2023/07/27 04:46:27;;;;;;;4.70;2.28;;;17.20;99.90;;;16.64;100.00;100746.41;3972422;29;20515;-75
2023/07/27 04:48:28;;;;;;;6.68;2.53;;;17.20;99.90;;;16.63;100.00;100744.78;3990873;29;20023;-75
2023/07/27 04:50:29;;;;;;;5.50;2.30;;;17.20;99.90;;;16.66;100.00;100750.53;3988810;29;20030;-74
2023/07/27 04:52:30;;;;;;;4.93;2.10;;;17.20;99.90;;;16.67;100.00;100746.84;3991767;29;20026;-74
2023/07/27 04:54:30;;;;;;;3.38;2.20;;;17.20;99.90;;;16.66;100.00;100739.06;3989646;29;20038;-74
2023/07/27 04:56:31;;;;;;;4.63;2.22;;;17.20;99.90;;;16.67;100.00;100746.00;3974483;29;20043;-74
2023/07/27 04:58:32;;;;;;;4.32;2.55;;;17.20;99.90;;;16.71;100.00;100744.63;3975700;29;20071;-74
2023/07/27 05:00:33;;;;;;;5.03;2.88;;;17.20;99.90;;;16.69;100.00;100736.00;3979443;29;20039;-74
2023/07/27 05:02:34;;;;;;;7.22;2.72;;;17.30;99.90;;;16.74;100.00;100741.56;3992436;29;20034;-74
2023/07/27 05:04:34;;;;;;;5.38;2.85;;;17.30;99.90;;;16.73;100.00;100737.25;3989698;29;20446;-74
2023/07/27 05:06:38;;;;;;;6.85;3.20;;;17.30;99.90;;;16.70;100.00;100734.97;3975797;29;20026;-75
2023/07/27 05:08:39;;;;;;;5.68;2.60;;;17.30;99.90;;;16.74;100.00;100736.25;3972061;29;20075;-75
2023/07/27 05:10:40;;;;;;;6.38;3.05;;;17.30;99.90;;;16.73;100.00;100735.41;3991093;29;20038;-74
2023/07/27 05:12:41;;;;;;;5.95;2.22;;;17.30;99.90;;;16.74;100.00;100736.25;3973082;29;20031;-74
2023/07/27 05:14:42;;;;;;;4.60;2.33;;;17.30;99.90;;;16.72;100.00;100733.78;3974589;29;20085;-74
2023/07/27 05:16:43;;;;;;;7.05;2.80;;;17.30;99.90;;;16.78;100.00;100734.84;3994567;29;20050;-74
2023/07/27 05:18:44;;;;;;;6.72;3.05;;;17.30;99.90;;;16.77;100.00;100728.69;3990031;29;20512;-74
2023/07/27 05:20:45;;;;;;;6.75;3.10;;;17.30;99.90;;;16.84;100.00;100742.88;3974113;29;20026;-74
2023/07/27 05:22:46;;;;;;;6.97;3.30;;;17.40;99.90;;;16.86;100.00;100745.31;3954253;30;20446;-74
2023/07/27 05:24:46;;;;;;;7.80;3.25;;;17.40;99.90;;;16.86;100.00;100730.16;3991828;29;20015;-74
2023/07/27 05:26:47;;;;;;;6.85;3.25;;;17.40;99.90;;;16.90;100.00;100735.94;3975635;29;20136;-75
2023/07/27 05:28:48;;;;;;;8.23;4.00;;;17.50;99.90;;;16.89;100.00;100734.28;3971569;29;20079;-75
2023/07/27 05:30:49;;;;;;;5.97;3.80;;;17.40;99.90;;;16.94;100.00;100732.66;3972461;29;20027;-74
2023/07/27 05:32:50;;;;;;;8.73;4.07;;;17.50;99.90;;;16.96;100.00;100735.97;3964123;30;20023;-74
2023/07/27 05:34:51;;;;;;;8.75;4.38;;;17.50;99.90;;;17.01;100.00;100736.19;3973474;29;20038;-75
2023/07/27 05:36:51;;;;;;;10.05;4.35;;;17.50;99.90;;;17.04;100.00;100737.63;3989478;29;20041;-74
2023/07/27 05:38:54;;;;;;;16.75;5.57;;;17.60;99.90;;;17.07;100.00;100740.72;3973619;29;20060;-74
2023/07/27 05:41:00;;;;;;;12.60;4.60;;;17.60;99.90;;;17.12;100.00;100740.94;3979696;29;20023;-74
2023/07/27 05:43:01;;;;;;;8.82;4.05;;;17.60;99.90;;;17.10;100.00;100728.84;3990510;29;20464;-75
2023/07/27 05:45:01;;;;;;;6.18;3.83;;;17.60;99.90;;;17.14;100.00;100730.91;3988770;29;20031;-75
2023/07/27 05:47:05;;;;;;;7.28;4.47;;;17.70;99.90;;;17.17;100.00;100727.03;3990719;29;20034;-75
2023/07/27 05:49:05;;;;;;;7.70;4.15;;;17.70;99.90;;;17.21;100.00;100728.25;3975098;29;20035;-75
2023/07/27 05:51:06;;;;;;;5.80;3.80;;;17.70;99.90;;;17.23;100.00;100720.09;3973005;29;20038;-75
2023/07/27 05:53:07;;;;;;;8.68;4.28;;;17.80;99.90;;;17.28;100.00;100723.78;3972211;29;20019;-74
2023/07/27 05:55:08;;;;;;;10.18;4.47;;;17.80;99.90;;;17.33;100.00;100724.00;3974553;29;20042;-74
2023/07/27 05:57:09;;;;;;;8.27;4.15;;;17.90;99.90;;;17.37;100.00;100729.75;3991384;29;20605;-74
2023/07/27 05:59:10;;;;;;;7.20;4.25;;;17.90;99.90;;;17.39;100.00;100725.88;3989509;29;20034;-75
2023/07/27 06:01:11;;;;;;;9.93;4.63;;;17.90;99.90;;;17.40;100.00;100721.38;3987024;29;20039;-74
2023/07/27 06:03:12;;;;;;;11.10;4.85;;;17.90;99.90;;;17.41;100.00;100718.47;3989118;29;20072;-74
2023/07/27 06:05:13;;;;;;;9.48;5.05;;;18.00;99.90;;;17.52;100.00;100728.59;3973679;29;20098;-74
2023/07/27 06:07:14;;;;;;;7.63;4.20;;;18.00;99.90;;;17.64;100.00;100721.66;3988618;29;20505;-75
2023/07/27 06:09:15;;;;;;;9.88;4.55;;;18.10;99.90;;;17.77;100.00;100718.19;3975201;29;20031;-74
2023/07/27 06:11:17;;;;;;;11.93;4.45;;;18.30;99.90;;;17.89;100.00;100715.75;3971408;29;20094;-75
2023/07/27 06:13:18;;;;;;;9.48;4.90;;;18.40;99.90;;;18.03;100.00;100710.22;3993132;29;20094;-75
2023/07/27 06:15:19;;;;;;;9.05;5.28;;;18.50;99.90;;;18.13;100.00;100715.94;3990821;29;20038;-75
2023/07/27 06:17:20;;;;;;;7.57;3.65;;;18.60;99.90;;;18.23;100.00;100715.53;3990670;29;20041;-75
2023/07/27 06:19:21;;;;;;;7.88;4.57;;;18.70;99.90;;;18.26;100.00;100715.13;3989847;29;20058;-75
2023/07/27 06:21:22;;;;;;;8.55;4.30;;;18.80;99.90;;;18.29;100.00;100717.38;3960051;30;20039;-75
2023/07/27 06:23:23;;;;;;;7.57;4.18;;;18.80;99.90;;;18.37;100.00;100719.03;3986441;29;20539;-75
2023/07/27 06:25:24;;;;;;;10.40;4.78;;;18.90;99.90;;;18.42;100.00;100727.25;3975565;29;20034;-75
2023/07/27 06:27:25;;;;;;;10.43;5.03;;;18.90;99.90;;;18.57;100.00;100720.69;3990811;29;20045;-75
2023/07/27 06:29:26;;;;;;;9.77;4.85;;;19.00;99.90;;;18.71;100.00;100732.97;3994046;29;20045;-75
2023/07/27 06:31:26;;;;;;;7.57;4.57;;;19.10;99.90;;;18.83;100.00;100721.63;3991230;29;20103;-75
2023/07/27 06:33:27;;;;;;;6.95;4.30;;;19.30;99.90;;;18.89;100.00;100720.78;3974625;29;20034;-75
2023/07/27 06:35:28;;;;;;;10.13;4.15;;;19.30;99.90;;;18.83;100.00;100721.63;3972205;29;20031;-75
2023/07/27 06:37:29;;;;;;;6.93;4.40;;;19.40;99.90;;;18.82;100.00;100726.16;3976300;29;20039;-75
2023/07/27 06:39:30;;;;;;;7.22;4.22;;;19.30;99.90;;;18.83;100.00;100726.97;3993760;29;20491;-75
2023/07/27 06:41:31;;;;;;;9.02;4.03;;;19.30;99.90;;;18.74;100.00;100727.22;3973293;29;20234;-75
2023/07/27 06:43:32;;;;;;;8.80;4.28;;;19.30;99.90;;;18.66;100.00;100723.94;3975209;29;20031;-75
2023/07/27 06:45:34;;;;;;;10.00;4.68;;;19.30;99.90;;;18.71;100.00;100722.28;3988499;29;20023;-75
2023/07/27 06:47:35;;;;;;;7.88;4.13;;;19.20;99.90;;;18.82;100.00;100725.38;3993665;29;20045;-75
2023/07/27 06:49:35;;;;;;;7.72;4.13;;;19.30;99.90;;;18.88;100.00;100719.16;3974188;29;20055;-75
2023/07/27 06:51:37;;;;;;;7.28;4.05;;;19.40;99.90;;;19.10;100.00;100726.69;3976100;29;20023;-75
2023/07/27 06:53:38;;;;;;;10.40;4.45;;;19.50;99.90;;;19.31;100.00;100713.03;3992563;29;20035;-75
2023/07/27 06:55:39;;;;;;;7.70;4.50;;;19.70;99.90;;;19.53;100.00;100720.75;3981232;29;20042;-75
2023/07/27 06:57:39;;;;;;;9.23;4.43;;;20.00;99.90;;;19.81;100.00;100727.38;3992225;29;20034;-75
2023/07/27 06:59:40;;;;;;;8.27;4.50;;;20.20;99.90;;;19.95;100.00;100722.72;3991301;29;20034;-75
2023/07/27 07:01:41;;;;;;;11.25;4.28;;;20.40;99.90;;;19.98;100.00;100714.25;3993132;29;20461;-75
2023/07/27 07:03:42;;;;;;;11.38;5.57;;;20.40;99.90;;;20.02;100.00;100709.28;3974309;29;20015;-75
2023/07/27 07:05:43;;;;;;;8.63;4.25;;;20.50;99.90;;;20.22;100.00;100713.44;3977545;29;20057;-76
2023/07/27 07:07:44;;;;;;;7.95;4.60;;;20.60;99.90;;;20.36;100.00;100719.53;3974258;29;20031;-75
2023/07/27 07:09:46;;;;;;;8.68;3.85;;;20.70;99.90;;;20.41;100.00;100709.81;3992987;29;20038;-75
2023/07/27 07:11:48;;;;;;;8.15;5.07;;;20.80;99.90;;;20.45;100.00;100709.34;3992087;29;20101;-75
2023/07/27 07:13:48;;;;;;;10.68;4.82;;;20.90;99.90;;;20.55;100.00;100717.72;3975064;29;20172;-75
2023/07/27 07:15:52;;;;;;;7.20;4.45;;;20.90;99.90;;;20.43;100.00;100706.88;3990957;29;20038;-78
2023/07/27 07:17:53;;;;;;;12.02;5.25;;;21.00;99.90;;;20.33;100.00;100710.09;3990651;29;20035;-77
2023/07/27 07:19:54;;;;;;;8.85;3.60;;;20.90;99.90;;;20.34;100.00;100702.84;3988299;29;20038;-76
2023/07/27 07:21:55;;;;;;;7.75;5.30;;;20.80;99.90;;;20.36;100.00;100708.81;3978304;29;20031;-75
2023/07/27 07:23:56;;;;;;;8.50;4.63;;;20.80;99.90;;;20.39;100.00;100711.88;3989302;29;20571;-76
2023/07/27 07:25:56;;;;;;;7.88;4.38;;;20.80;99.90;;;20.38;100.00;100714.78;3976069;29;20408;-76
2023/07/27 07:27:57;;;;;;;5.57;3.85;;;20.90;99.90;;;20.53;100.00;100703.69;3974115;29;20034;-77
2023/07/27 07:29:58;;;;;;;9.32;4.18;;;21.00;99.90;;;20.79;100.00;100701.56;3970814;29;20531;-77
2023/07/27 07:31:59;;;;;;;6.10;4.15;;;21.20;99.90;;;21.04;100.00;100703.34;3993267;29;20038;-76
2023/07/27 07:34:00;;;;;;;6.82;3.85;;;21.40;99.90;;;21.07;100.00;100702.88;3990874;29;20035;-75
2023/07/27 07:36:01;;;;;;;7.80;4.13;;;21.50;99.90;;;21.02;100.00;100700.91;3992426;29;20208;-76
2023/07/27 07:38:02;;;;;;;7.65;4.28;;;21.50;99.90;;;20.80;100.00;100708.56;3990852;29;20091;-75
2023/07/27 07:40:03;;;;;;;6.85;3.97;;;21.40;99.90;;;20.52;100.00;100710.13;3988650;29;20027;-75
2023/07/27 07:42:04;;;;;;;10.52;4.10;;;21.20;99.90;;;20.29;100.00;100702.69;3991408;29;20031;-75
2023/07/27 07:44:05;;;;;;;6.25;3.47;;;21.00;99.90;;;20.21;100.00;100694.91;3992121;29;20101;-75
2023/07/27 07:46:13;;;;;;;8.82;4.13;;;20.90;99.90;;;20.09;100.00;100699.34;3992370;29;20027;-76
2023/07/27 07:48:14;;;;;;;7.85;4.20;;;20.70;99.90;;;19.83;100.00;100690.47;3972577;29;20030;-75
2023/07/27 07:50:15;;;;;;;9.45;3.80;;;20.60;99.90;;;19.74;100.00;100697.13;3975841;29;20034;-75
2023/07/27 07:52:16;;;;;;;6.38;3.80;;;20.40;99.90;;;19.79;100.00;100691.16;3989988;29;20056;-75
2023/07/27 07:54:17;;;;;;;7.68;4.10;;;20.40;99.90;;;19.85;100.00;100698.31;3992296;29;20470;-75
2023/07/27 07:56:18;;;;;;;8.68;4.68;;;20.40;99.90;;;19.83;100.00;100693.16;3989876;29;20079;-75
2023/07/27 07:58:19;;;;;;;7.10;3.65;;;20.40;99.90;;;19.91;100.00;100707.31;3973696;29;20759;-75
2023/07/27 08:00:20;;;;;;;6.70;3.80;;;20.40;99.90;;;19.89;100.00;100705.66;3992414;29;20026;-75
2023/07/27 08:02:20;;;;;;;7.78;4.57;;;20.40;99.90;;;19.86;100.00;100698.06;3972806;29;20031;-75
2023/07/27 08:04:21;;;;;;;6.95;4.38;;;20.40;99.90;;;19.91;100.00;100704.66;3970056;29;20096;-75
2023/07/27 08:06:22;;;;;;;6.68;3.78;;;20.40;99.90;;;19.96;100.00;100699.44;3991955;29;20047;-74
2023/07/27 08:08:23;;;;;;;10.10;3.92;;;20.50;99.90;;;20.00;100.00;100700.66;3990228;29;20031;-75
2023/07/27 08:10:25;;;;;;;6.85;3.70;;;20.50;99.90;;;20.07;100.00;100699.56;3986949;29;20031;-74
2023/07/27 08:12:26;;;;;;;8.30;4.20;;;20.50;99.90;;;20.18;100.00;100708.75;3974880;29;20036;-74
2023/07/27 08:14:26;;;;;;;6.55;3.80;;;20.60;99.90;;;20.19;100.00;100703.16;3991766;29;20045;-74
2023/07/27 08:16:28;;;;;;;9.05;3.85;;;20.70;99.90;;;20.10;100.00;100704.47;3988477;29;20555;-76
2023/07/27 08:18:31;;;;;;;7.80;3.85;;;20.70;99.90;;;20.12;100.00;100710.44;3989648;29;20073;-76
2023/07/27 08:20:32;;;;;;;6.87;3.97;;;20.70;99.90;;;20.13;100.00;100700.56;3963080;29;20128;-76
2023/07/27 08:22:33;;;;;;;7.45;4.30;;;20.70;99.90;;;20.19;100.00;100699.69;3993255;29;20034;-76